createdAt,value
2019-05-06T00:01:34.092Z,101482.50
2019-05-06T00:04:37.532Z,101483.22
2019-05-06T00:07:44.477Z,101488.70
2019-05-06T00:10:48.269Z,101487.26
2019-05-06T00:13:54.092Z,101479.02
2019-05-06T00:16:58.761Z,101481.41
2019-05-06T00:20:04.282Z,101474.02
2019-05-06T00:23:24.833Z,101472.75
2019-05-06T00:26:56.935Z,101479.97
2019-05-06T00:29:59.297Z,101471.53
2019-05-06T00:33:04.378Z,101467.52
2019-05-06T00:36:08.177Z,101461.44
2019-05-06T00:39:40.170Z,101465.38
2019-05-06T00:42:57.389Z,101470.70
2019-05-06T00:46:01.102Z,101459.81
2019-05-06T00:49:04.867Z,101449.80
2019-05-06T00:52:08.831Z,101448.77
2019-05-06T00:55:13.711Z,101445.77
2019-05-06T00:58:17.544Z,101454.86
2019-05-06T01:01:27.031Z,101451.72
2019-05-06T01:04:26.860Z,101452.02
2019-05-06T01:07:30.560Z,101453.92
2019-05-06T01:10:34.498Z,101452.70
2019-05-06T01:13:54.521Z,101453.52
2019-05-06T01:16:58.346Z,101443.83
2019-05-06T01:20:04.338Z,101442.98
2019-05-06T01:23:08.287Z,101448.73
2019-05-06T01:26:14.907Z,101446.01
2019-05-06T01:29:18.270Z,101443.13
2019-05-06T01:32:23.659Z,101443.04
2019-05-06T01:35:27.437Z,101440.92
2019-05-06T01:38:35.601Z,101442.30
2019-05-06T01:41:48.559Z,101447.98
2019-05-06T01:44:53.848Z,101444.55
2019-05-06T01:47:57.931Z,101445.38
2019-05-06T01:51:03.459Z,101444.47
2019-05-06T01:54:07.109Z,101447.55
2019-05-06T01:57:10.821Z,101445.36
2019-05-06T02:00:14.936Z,101448.14
2019-05-06T02:03:18.631Z,101446.33
2019-05-06T02:06:24.785Z,101443.35
2019-05-06T02:09:27.828Z,101441.11
2019-05-06T02:12:31.509Z,101442.80
2019-05-06T02:15:35.220Z,101439.88
2019-05-06T02:18:39.197Z,101438.93
2019-05-06T02:22:17.071Z,101435.77
2019-05-06T02:25:24.717Z,101442.46
2019-05-06T02:28:28.431Z,101439.89
2019-05-06T02:31:54.626Z,101435.86
2019-05-06T02:35:15.373Z,101436.78
2019-05-06T02:38:35.578Z,101432.52
2019-05-06T02:41:33.721Z,101430.73
2019-05-06T02:44:37.838Z,101429.56
2019-05-06T02:47:53.692Z,101426.33
2019-05-06T02:50:59.281Z,101425.55
2019-05-06T02:54:03.416Z,101421.63
2019-05-06T02:57:07.576Z,101425.52
2019-05-06T03:00:15.108Z,101419.89
2019-05-06T03:03:18.875Z,101422.09
2019-05-06T03:06:23.842Z,101419.11
2019-05-06T03:09:27.725Z,101409.77
2019-05-06T03:12:33.524Z,101413.35
2019-05-06T03:15:36.846Z,101415.92
2019-05-06T03:18:43.136Z,101415.92
2019-05-06T03:21:57.913Z,101413.92
2019-05-06T03:25:13.902Z,101405.98
2019-05-06T03:28:17.589Z,101409.02
2019-05-06T03:31:25.952Z,101416.05
2019-05-06T03:34:49.236Z,101420.92
2019-05-06T03:37:33.428Z,101410.27
2019-05-06T03:40:41.821Z,101417.92
2019-05-06T03:43:43.678Z,101410.03
2019-05-06T03:47:09.293Z,101413.04
2019-05-06T03:50:13.503Z,101410.86
2019-05-06T03:53:17.294Z,101408.20
2019-05-06T03:56:23.946Z,101403.79
2019-05-06T03:59:33.299Z,101407.32
2019-05-06T04:02:39.416Z,101407.34
2019-05-06T04:05:43.571Z,101409.50
2019-05-06T04:08:48.075Z,101402.95
2019-05-06T04:11:54.149Z,101394.59
2019-05-06T04:14:57.681Z,101394.59
2019-05-06T04:18:06.530Z,101402.50
2019-05-06T04:21:18.999Z,101399.87
2019-05-06T04:24:30.000Z,101401.03
2019-05-06T04:27:38.123Z,101401.52
2019-05-06T04:30:42.980Z,101401.03
2019-05-06T04:34:05.329Z,101396.25
2019-05-06T04:36:53.301Z,101392.84
2019-05-06T04:39:57.557Z,101394.55
2019-05-06T04:43:03.614Z,101395.69
2019-05-06T04:46:07.221Z,101400.65
2019-05-06T04:49:14.882Z,101392.72
2019-05-06T04:52:17.308Z,101385.16
2019-05-06T04:55:22.634Z,101395.34
2019-05-06T04:58:27.178Z,101388.53
2019-05-06T05:01:33.883Z,101389.75
2019-05-06T05:04:37.127Z,101389.06
2019-05-06T05:07:42.547Z,101388.00
2019-05-06T05:10:53.097Z,101392.36
2019-05-06T05:14:14.737Z,101391.89
2019-05-06T05:17:25.156Z,101391.41
2019-05-06T05:20:37.683Z,101396.19
2019-05-06T05:23:34.674Z,101400.94
2019-05-06T05:26:39.038Z,101392.03
2019-05-06T05:29:42.728Z,101390.99
2019-05-06T05:32:46.880Z,101392.77
2019-05-06T05:35:52.598Z,101393.34
2019-05-06T05:38:56.089Z,101389.16
2019-05-06T05:42:05.694Z,101394.11
2019-05-06T05:45:10.313Z,101386.79
2019-05-06T05:48:24.470Z,101392.00
2019-05-06T05:51:28.507Z,101389.73
2019-05-06T05:54:33.276Z,101393.73
2019-05-06T05:57:37.378Z,101382.19
2019-05-06T06:00:42.585Z,101383.83
2019-05-06T06:03:46.564Z,101383.61
2019-05-06T06:06:51.993Z,101390.74
2019-05-06T06:10:03.027Z,101389.35
2019-05-06T06:13:06.952Z,101385.39
2019-05-06T06:16:38.904Z,101385.05
2019-05-06T06:19:50.717Z,101386.27
2019-05-06T06:22:56.498Z,101388.00
2019-05-06T06:26:03.681Z,101387.77
2019-05-06T06:29:06.040Z,101389.94
2019-05-06T06:32:18.104Z,101393.96
2019-05-06T06:35:27.600Z,101391.66
2019-05-06T06:38:56.450Z,101394.16
2019-05-06T06:42:00.158Z,101385.23
2019-05-06T06:45:04.645Z,101384.25
2019-05-06T06:48:08.494Z,101383.25
2019-05-06T06:51:12.787Z,101387.41
2019-05-06T06:54:16.466Z,101377.75
2019-05-06T06:57:36.322Z,101376.05
2019-05-06T07:01:16.019Z,101374.80
2019-05-06T07:04:28.850Z,101381.82
2019-05-06T07:07:43.449Z,101382.78
2019-05-06T07:10:45.059Z,101392.64
2019-05-06T07:13:55.574Z,101390.17
2019-05-06T07:16:59.536Z,101383.88
2019-05-06T07:20:06.921Z,101387.23
2019-05-06T07:23:27.184Z,101381.27
2019-05-06T07:26:35.939Z,101388.16
2019-05-06T07:29:39.885Z,101382.53
2019-05-06T07:32:43.704Z,101378.83
2019-05-06T07:35:48.176Z,101379.53
2019-05-06T07:38:52.650Z,101372.06
2019-05-06T07:41:59.255Z,101364.65
2019-05-06T07:45:15.502Z,101369.56
2019-05-06T07:48:19.222Z,101376.03
2019-05-06T07:51:23.836Z,101369.80
2019-05-06T07:54:27.834Z,101369.06
2019-05-06T07:57:32.992Z,101375.16
2019-05-06T08:00:37.646Z,101381.69
2019-05-06T08:03:42.756Z,101377.47
2019-05-06T08:06:46.700Z,101371.41
2019-05-06T08:09:52.426Z,101368.31
2019-05-06T08:12:55.896Z,101361.10
2019-05-06T08:15:59.607Z,101357.91
2019-05-06T08:19:03.516Z,101353.47
2019-05-06T08:22:12.002Z,101362.10
2019-05-06T08:25:16.026Z,101345.77
2019-05-06T08:28:22.394Z,101348.97
2019-05-06T08:31:25.476Z,101346.36
2019-05-06T08:34:29.172Z,101350.61
2019-05-06T08:37:34.851Z,101353.34
2019-05-06T08:40:38.603Z,101360.38
2019-05-06T08:43:42.371Z,101370.30
2019-05-06T08:46:46.389Z,101385.23
2019-05-06T08:50:02.523Z,101406.61
2019-05-06T08:53:23.989Z,101402.80
2019-05-06T08:56:25.450Z,101407.28
2019-05-06T08:59:29.160Z,101397.21
2019-05-06T09:02:32.853Z,101391.00
2019-05-06T09:05:36.552Z,101387.19
2019-05-06T09:08:42.838Z,101381.43
2019-05-06T09:11:46.014Z,101376.16
2019-05-06T09:14:49.719Z,101393.77
2019-05-06T09:17:53.402Z,101394.70
2019-05-06T09:20:57.444Z,101388.20
2019-05-06T09:24:02.250Z,101396.00
2019-05-06T09:27:42.173Z,101384.52
2019-05-06T09:30:52.414Z,101371.23
2019-05-06T09:34:02.787Z,101371.58
2019-05-06T09:37:15.341Z,101361.05
2019-05-06T09:40:19.215Z,101350.22
2019-05-06T09:43:23.187Z,101344.83
2019-05-06T09:46:26.901Z,101350.20
2019-05-06T09:49:32.944Z,101329.84
2019-05-06T09:52:36.736Z,101332.11
2019-05-06T09:55:46.035Z,101345.88
2019-05-06T09:58:49.814Z,101358.93
2019-05-06T10:01:53.746Z,101364.12
2019-05-06T10:04:57.742Z,101358.01
2019-05-06T10:08:03.328Z,101370.55
2019-05-06T10:11:07.215Z,101359.64
2019-05-06T10:14:12.907Z,101355.95
2019-05-06T10:17:16.475Z,101358.25
2019-05-06T10:20:22.269Z,101358.44
2019-05-06T10:23:25.613Z,101356.64
2019-05-06T10:26:33.325Z,101357.94
2019-05-06T10:29:45.131Z,101361.09
2019-05-06T10:32:52.892Z,101349.40
2019-05-06T10:36:02.537Z,101357.14
2019-05-06T10:39:10.081Z,101387.30
2019-05-06T10:42:17.607Z,101392.91
2019-05-06T10:45:28.267Z,101397.56
2019-05-06T10:48:31.983Z,101400.83
2019-05-06T10:51:45.640Z,101386.92
2019-05-06T10:54:49.695Z,101373.06
2019-05-06T10:57:53.404Z,101379.95
2019-05-06T11:01:08.830Z,101365.31
2019-05-06T11:04:12.535Z,101355.59
2019-05-06T11:07:28.266Z,101351.79
2019-05-06T11:10:27.893Z,101353.20
2019-05-06T11:13:27.279Z,101352.94
2019-05-06T11:16:33.125Z,101340.42
2019-05-06T11:19:36.405Z,101336.97
2019-05-06T11:22:40.116Z,101337.10
2019-05-06T11:25:43.950Z,101329.70
2019-05-06T11:28:52.060Z,101329.73
2019-05-06T11:32:02.507Z,101325.64
2019-05-06T11:35:12.326Z,101335.65
2019-05-06T11:38:17.581Z,101347.45
2019-05-06T11:41:23.341Z,101353.86
2019-05-06T11:44:27.006Z,101363.19
2019-05-06T11:47:32.464Z,101372.85
2019-05-06T11:50:36.681Z,101379.16
2019-05-06T11:53:40.377Z,101389.09
2019-05-06T11:56:50.660Z,101383.14
2019-05-06T11:59:49.701Z,101378.34
2019-05-06T12:02:53.742Z,101383.27
2019-05-06T12:05:57.440Z,101368.77
2019-05-06T12:09:06.072Z,101368.70
2019-05-06T12:12:06.865Z,101368.05
2019-05-06T12:15:12.570Z,101362.70
2019-05-06T12:18:16.404Z,101356.39
2019-05-06T12:21:20.103Z,101366.02
2019-05-06T12:24:23.826Z,101370.95
2019-05-06T12:27:46.004Z,101375.87
2019-05-06T12:30:52.231Z,101386.69
2019-05-06T12:33:55.511Z,101414.81
2019-05-06T12:37:02.690Z,101408.34
2019-05-06T12:40:06.818Z,101397.06
2019-05-06T12:43:28.703Z,101397.88
2019-05-06T12:46:38.878Z,101392.78
2019-05-06T12:49:42.799Z,101398.74
2019-05-06T12:52:46.577Z,101399.00
2019-05-06T12:55:52.020Z,101394.45
2019-05-06T12:58:56.063Z,101396.65
2019-05-06T13:02:02.423Z,101406.61
2019-05-06T13:05:05.835Z,101412.86
2019-05-06T13:08:09.918Z,101406.31
2019-05-06T13:11:13.673Z,101400.85
2019-05-06T13:14:17.474Z,101392.40
2019-05-06T13:17:26.249Z,101389.22
2019-05-06T13:20:34.380Z,101384.58
2019-05-06T13:23:47.933Z,101378.74
2019-05-06T13:26:52.840Z,101387.40
2019-05-06T13:29:56.823Z,101388.19
2019-05-06T13:33:07.313Z,101385.23
2019-05-06T13:36:13.167Z,101391.28
2019-05-06T13:39:17.536Z,101386.91
2019-05-06T13:42:22.896Z,101395.38
2019-05-06T13:45:26.615Z,101396.33
2019-05-06T13:48:35.283Z,101401.77
2019-05-06T13:51:39.674Z,101405.92
2019-05-06T13:54:58.914Z,101402.48
2019-05-06T13:58:12.560Z,101388.64
2019-05-06T14:01:32.547Z,101386.84
2019-05-06T14:04:45.853Z,101389.44
2019-05-06T14:08:05.869Z,101389.14
2019-05-06T14:11:09.622Z,101376.89
2019-05-06T14:14:14.029Z,101381.25
2019-05-06T14:17:17.726Z,101388.47
2019-05-06T14:20:22.076Z,101380.73
2019-05-06T14:23:25.954Z,101374.34
2019-05-06T14:26:39.236Z,101385.33
2019-05-06T14:29:53.302Z,101383.23
2019-05-06T14:32:57.234Z,101386.88
2019-05-06T14:36:03.255Z,101378.36
2019-05-06T14:39:12.544Z,101388.98
2019-05-06T14:42:15.885Z,101391.06
2019-05-06T14:45:22.016Z,101394.41
2019-05-06T14:48:25.012Z,101393.58
2019-05-06T14:51:28.713Z,101395.94
2019-05-06T14:54:33.140Z,101401.55
2019-05-06T14:57:37.393Z,101401.14
2019-05-06T15:00:42.542Z,101405.63
2019-05-06T15:03:46.381Z,101400.05
2019-05-06T15:06:50.073Z,101402.41
2019-05-06T15:10:08.029Z,101395.55
2019-05-06T15:12:59.277Z,101400.90
2019-05-06T15:16:03.690Z,101406.72
2019-05-06T15:19:08.048Z,101403.85
2019-05-06T15:22:13.000Z,101405.28
2019-05-06T15:25:17.104Z,101412.77
2019-05-06T15:28:22.638Z,101412.30
2019-05-06T15:31:42.306Z,101411.70
2019-05-06T15:34:56.253Z,101403.53
2019-05-06T15:38:02.676Z,101409.14
2019-05-06T15:41:06.389Z,101409.09
2019-05-06T15:44:12.478Z,101406.91
2019-05-06T15:47:15.764Z,101410.48
2019-05-06T15:50:20.051Z,101406.77
2019-05-06T15:53:23.746Z,101409.42
2019-05-06T15:56:27.450Z,101408.84
2019-05-06T15:59:33.239Z,101412.36
2019-05-06T16:02:36.751Z,101412.31
2019-05-06T16:05:40.451Z,101409.32
2019-05-06T16:08:44.147Z,101403.69
2019-05-06T16:11:48.120Z,101407.75
2019-05-06T16:14:53.087Z,101406.38
2019-05-06T16:17:57.282Z,101410.23
2019-05-06T16:21:02.963Z,101405.45
2019-05-06T16:24:17.398Z,101405.79
2019-05-06T16:27:22.976Z,101419.08
2019-05-06T16:30:26.903Z,101418.12
2019-05-06T16:33:32.902Z,101417.97
2019-05-06T16:36:36.319Z,101414.15
2019-05-06T16:39:40.352Z,101422.95
2019-05-06T16:42:45.898Z,101411.81
2019-05-06T16:45:52.940Z,101419.62
2019-05-06T16:48:55.535Z,101404.78
2019-05-06T16:51:59.563Z,101413.69
2019-05-06T16:55:03.540Z,101409.02
2019-05-06T16:58:11.808Z,101399.44
2019-05-06T17:01:15.595Z,101393.44
2019-05-06T17:04:41.838Z,101405.28
2019-05-06T17:07:45.882Z,101402.22
2019-05-06T17:10:49.583Z,101405.75
2019-05-06T17:13:53.279Z,101408.58
2019-05-06T17:16:57.397Z,101404.30
2019-05-06T17:20:03.083Z,101407.48
2019-05-06T17:23:06.529Z,101407.02
2019-05-06T17:26:10.250Z,101402.42
2019-05-06T17:29:38.786Z,101409.04
2019-05-06T17:32:45.877Z,101416.75
2019-05-06T17:35:49.609Z,101419.97
2019-05-06T17:38:53.888Z,101413.83
2019-05-06T17:41:57.598Z,101419.87
2019-05-06T17:45:03.983Z,101421.44
2019-05-06T17:48:14.191Z,101424.77
2019-05-06T17:51:19.963Z,101415.84
2019-05-06T17:54:25.897Z,101425.23
2019-05-06T17:57:29.168Z,101433.98
2019-05-06T18:00:32.879Z,101432.80
2019-05-06T18:03:36.587Z,101432.44
2019-05-06T18:06:42.441Z,101436.67
2019-05-06T18:09:45.707Z,101444.84
2019-05-06T18:12:49.415Z,101443.47
2019-05-06T18:15:53.451Z,101437.36
2019-05-06T18:18:57.169Z,101438.13
2019-05-06T18:22:02.569Z,101444.52
2019-05-06T18:25:06.653Z,101444.06
2019-05-06T18:28:12.273Z,101440.96
2019-05-06T18:31:16.079Z,101445.02
2019-05-06T18:34:19.785Z,101445.55
2019-05-06T18:37:23.535Z,101447.29
2019-05-06T18:40:27.181Z,101442.20
2019-05-06T18:43:33.241Z,101449.07
2019-05-06T18:46:36.402Z,101446.11
2019-05-06T18:49:42.434Z,101453.67
2019-05-06T18:52:45.553Z,101457.66
2019-05-06T18:55:49.300Z,101464.69
2019-05-06T18:58:53.264Z,101457.17
2019-05-06T19:01:57.414Z,101460.18
2019-05-06T19:05:15.938Z,101463.89
2019-05-06T19:08:42.235Z,101464.27
2019-05-06T19:11:46.065Z,101464.80
2019-05-06T19:14:49.766Z,101471.70
2019-05-06T19:17:53.709Z,101468.61
2019-05-06T19:20:57.413Z,101466.00
2019-05-06T19:24:02.786Z,101469.55
2019-05-06T19:27:06.628Z,101471.23
2019-05-06T19:30:12.827Z,101472.98
2019-05-06T19:33:16.579Z,101471.29
2019-05-06T19:36:20.292Z,101474.83
2019-05-06T19:39:24.684Z,101478.87
2019-05-06T19:42:42.230Z,101482.30
2019-05-06T19:45:34.645Z,101484.83
2019-05-06T19:48:38.410Z,101483.52
2019-05-06T19:51:42.868Z,101491.09
2019-05-06T19:54:46.611Z,101489.92
2019-05-06T19:57:52.508Z,101489.70
2019-05-06T20:00:56.443Z,101493.02
2019-05-06T20:04:02.330Z,101487.84
2019-05-06T20:07:13.272Z,101485.64
2019-05-06T20:10:27.523Z,101492.22
2019-05-06T20:13:32.256Z,101488.57
2019-05-06T20:16:36.097Z,101493.64
2019-05-06T20:19:39.870Z,101488.77
2019-05-06T20:22:44.004Z,101488.60
2019-05-06T20:25:47.736Z,101491.55
2019-05-06T20:28:52.616Z,101488.43
2019-05-06T20:31:56.421Z,101485.81
2019-05-06T20:35:00.107Z,101485.23
2019-05-06T20:38:03.905Z,101486.36
2019-05-06T20:41:07.629Z,101488.73
2019-05-06T20:44:12.391Z,101490.47
2019-05-06T20:47:16.101Z,101486.63
2019-05-06T20:50:19.919Z,101484.11
2019-05-06T20:53:23.955Z,101479.59
2019-05-06T20:56:27.658Z,101483.75
2019-05-06T20:59:32.226Z,101484.98
2019-05-06T21:02:36.039Z,101489.81
2019-05-06T21:05:39.730Z,101493.66
2019-05-06T21:08:43.429Z,101496.38
2019-05-06T21:11:47.130Z,101492.34
2019-05-06T21:14:50.872Z,101487.88
2019-05-06T21:17:54.572Z,101494.28
2019-05-06T21:20:58.586Z,101495.73
2019-05-06T21:24:02.278Z,101505.47
2019-05-06T21:27:06.057Z,101508.64
2019-05-06T21:30:10.506Z,101510.43
2019-05-06T21:33:14.210Z,101506.39
2019-05-06T21:36:18.385Z,101510.85
2019-05-06T21:39:22.512Z,101520.63
2019-05-06T21:42:26.250Z,101510.82
2019-05-06T21:45:29.978Z,101508.23
2019-05-06T21:48:33.987Z,101510.13
2019-05-06T21:51:37.671Z,101512.48
2019-05-06T21:54:43.449Z,101509.48
2019-05-06T21:57:46.793Z,101509.53
2019-05-06T22:01:06.436Z,101505.50
2019-05-06T22:04:12.787Z,101505.56
2019-05-06T22:07:15.982Z,101500.85
2019-05-06T22:10:19.689Z,101496.84
2019-05-06T22:13:23.397Z,101500.45
2019-05-06T22:16:27.086Z,101494.78
2019-05-06T22:19:32.038Z,101494.41
2019-05-06T22:22:36.086Z,101491.37
2019-05-06T22:25:39.789Z,101485.36
2019-05-06T22:28:43.506Z,101479.27
2019-05-06T22:31:47.209Z,101482.81
2019-05-06T22:34:50.919Z,101482.45
2019-05-06T22:37:54.628Z,101480.28
2019-05-06T22:40:58.336Z,101483.83
2019-05-06T22:44:13.342Z,101481.72
2019-05-06T22:47:07.492Z,101475.16
2019-05-06T22:50:13.043Z,101475.16
2019-05-06T22:53:16.942Z,101477.40
2019-05-06T22:56:22.631Z,101476.60
2019-05-06T22:59:26.090Z,101481.00
2019-05-06T23:02:45.687Z,101482.39
2019-05-06T23:05:49.387Z,101485.91
2019-05-06T23:08:53.332Z,101482.34
2019-05-06T23:11:57.042Z,101484.27
2019-05-06T23:15:02.693Z,101478.02
2019-05-06T23:18:06.329Z,101490.48
2019-05-06T23:21:11.779Z,101489.98
2019-05-06T23:24:15.453Z,101486.06
2019-05-06T23:27:19.162Z,101491.37
2019-05-06T23:30:23.601Z,101493.63
2019-05-06T23:33:27.488Z,101493.55
2019-05-06T23:37:12.903Z,101498.86
2019-05-06T23:40:52.470Z,101498.30
2019-05-06T23:44:44.974Z,101501.44
2019-05-06T23:48:13.571Z,101496.50
2019-05-06T23:51:53.299Z,101491.42
2019-05-06T23:55:33.066Z,101492.56
2019-05-06T23:58:36.774Z,101496.62
